sensor_id;sensor_type;location;lat;lon;timestamp;P1;durP1;ratioP1;P2;durP2;ratioP2
5042;SDS011;2540;50.928;6.856;2022-11-20T00:00:52;26.07;;;12.70;;
5042;SDS011;2540;50.928;6.856;2022-11-20T00:03:18;41.17;;;18.17;;
5042;SDS011;2540;50.928;6.856;2022-11-20T00:05:43;30.13;;;14.43;;
5042;SDS011;2540;50.928;6.856;2022-11-20T00:08:09;29.40;;;14.20;;
5042;SDS011;2540;50.928;6.856;2022-11-20T00:10:37;31.50;;;14.03;;
5042;SDS011;2540;50.928;6.856;2022-11-20T00:13:03;23.00;;;11.90;;
5042;SDS011;2540;50.928;6.856;2022-11-20T00:15:28;24.13;;;13.30;;
5042;SDS011;2540;50.928;6.856;2022-11-20T00:17:53;28.47;;;14.03;;
5042;SDS011;2540;50.928;6.856;2022-11-20T00:20:19;26.50;;;14.67;;
5042;SDS011;2540;50.928;6.856;2022-11-20T00:22:44;27.00;;;14.90;;
5042;SDS011;2540;50.928;6.856;2022-11-20T00:25:09;24.20;;;13.83;;
5042;SDS011;2540;50.928;6.856;2022-11-20T00:27:34;26.90;;;13.90;;
5042;SDS011;2540;50.928;6.856;2022-11-20T00:29:59;25.30;;;13.30;;
5042;SDS011;2540;50.928;6.856;2022-11-20T00:32:25;25.10;;;13.57;;
5042;SDS011;2540;50.928;6.856;2022-11-20T00:34:50;30.80;;;15.77;;
5042;SDS011;2540;50.928;6.856;2022-11-20T00:37:15;32.13;;;15.63;;
5042;SDS011;2540;50.928;6.856;2022-11-20T00:39:40;26.00;;;14.10;;
5042;SDS011;2540;50.928;6.856;2022-11-20T00:42:05;25.27;;;14.03;;
5042;SDS011;2540;50.928;6.856;2022-11-20T00:44:30;25.90;;;14.60;;
5042;SDS011;2540;50.928;6.856;2022-11-20T00:46:56;24.07;;;13.80;;
5042;SDS011;2540;50.928;6.856;2022-11-20T00:49:21;24.50;;;14.10;;
5042;SDS011;2540;50.928;6.856;2022-11-20T00:51:46;25.93;;;14.33;;
5042;SDS011;2540;50.928;6.856;2022-11-20T00:54:11;29.30;;;14.67;;
5042;SDS011;2540;50.928;6.856;2022-11-20T00:56:36;20.20;;;11.90;;
5042;SDS011;2540;50.928;6.856;2022-11-20T00:59:02;21.67;;;12.60;;
5042;SDS011;2540;50.928;6.856;2022-11-20T01:01:27;30.40;;;15.00;;
5042;SDS011;2540;50.928;6.856;2022-11-20T01:03:54;25.73;;;14.20;;
5042;SDS011;2540;50.928;6.856;2022-11-20T01:06:21;24.40;;;13.70;;
5042;SDS011;2540;50.928;6.856;2022-11-20T01:08:47;20.37;;;11.60;;
5042;SDS011;2540;50.928;6.856;2022-11-20T01:11:19;22.13;;;11.90;;
5042;SDS011;2540;50.928;6.856;2022-11-20T01:13:45;21.97;;;12.40;;
5042;SDS011;2540;50.928;6.856;2022-11-20T01:16:18;24.53;;;12.60;;
5042;SDS011;2540;50.928;6.856;2022-11-20T01:18:44;20.03;;;12.07;;
5042;SDS011;2540;50.928;6.856;2022-11-20T01:21:10;22.67;;;12.70;;
5042;SDS011;2540;50.928;6.856;2022-11-20T01:23:36;20.07;;;12.10;;
5042;SDS011;2540;50.928;6.856;2022-11-20T01:26:03;21.77;;;11.37;;
5042;SDS011;2540;50.928;6.856;2022-11-20T01:28:28;20.33;;;11.10;;
5042;SDS011;2540;50.928;6.856;2022-11-20T01:30:54;20.50;;;11.50;;
5042;SDS011;2540;50.928;6.856;2022-11-20T01:33:19;20.97;;;11.90;;
5042;SDS011;2540;50.928;6.856;2022-11-20T01:35:44;21.40;;;11.57;;
5042;SDS011;2540;50.928;6.856;2022-11-20T01:38:09;19.27;;;12.63;;
5042;SDS011;2540;50.928;6.856;2022-11-20T01:40:34;18.20;;;10.50;;
5042;SDS011;2540;50.928;6.856;2022-11-20T01:43:06;19.77;;;11.40;;
5042;SDS011;2540;50.928;6.856;2022-11-20T01:46:14;20.90;;;11.60;;
5042;SDS011;2540;50.928;6.856;2022-11-20T01:48:44;20.50;;;12.40;;
5042;SDS011;2540;50.928;6.856;2022-11-20T01:51:13;19.63;;;11.37;;
5042;SDS011;2540;50.928;6.856;2022-11-20T01:53:40;19.73;;;11.73;;
5042;SDS011;2540;50.928;6.856;2022-11-20T01:56:06;20.50;;;11.23;;
5042;SDS011;2540;50.928;6.856;2022-11-20T01:58:34;19.30;;;11.63;;
5042;SDS011;2540;50.928;6.856;2022-11-20T02:01:00;19.93;;;11.00;;
5042;SDS011;2540;50.928;6.856;2022-11-20T02:03:25;17.17;;;10.63;;
5042;SDS011;2540;50.928;6.856;2022-11-20T02:08:34;17.50;;;10.37;;
5042;SDS011;2540;50.928;6.856;2022-11-20T02:11:00;18.53;;;11.07;;
5042;SDS011;2540;50.928;6.856;2022-11-20T02:13:25;14.67;;;9.83;;
5042;SDS011;2540;50.928;6.856;2022-11-20T02:18:47;20.60;;;11.80;;
5042;SDS011;2540;50.928;6.856;2022-11-20T02:21:24;20.53;;;11.70;;
5042;SDS011;2540;50.928;6.856;2022-11-20T02:23:55;18.40;;;11.00;;
5042;SDS011;2540;50.928;6.856;2022-11-20T02:26:22;20.63;;;12.17;;
5042;SDS011;2540;50.928;6.856;2022-11-20T02:28:47;19.20;;;10.47;;
5042;SDS011;2540;50.928;6.856;2022-11-20T02:31:13;17.77;;;10.90;;
5042;SDS011;2540;50.928;6.856;2022-11-20T02:33:38;18.13;;;11.40;;
5042;SDS011;2540;50.928;6.856;2022-11-20T02:36:03;20.70;;;11.70;;
5042;SDS011;2540;50.928;6.856;2022-11-20T02:38:29;18.93;;;11.17;;
5042;SDS011;2540;50.928;6.856;2022-11-20T02:40:54;21.50;;;12.07;;
5042;SDS011;2540;50.928;6.856;2022-11-20T02:43:19;17.70;;;11.03;;
5042;SDS011;2540;50.928;6.856;2022-11-20T02:45:44;18.60;;;10.90;;
5042;SDS011;2540;50.928;6.856;2022-11-20T02:48:09;18.53;;;10.70;;
5042;SDS011;2540;50.928;6.856;2022-11-20T02:50:38;24.33;;;11.33;;
5042;SDS011;2540;50.928;6.856;2022-11-20T02:53:04;20.40;;;10.80;;
5042;SDS011;2540;50.928;6.856;2022-11-20T02:55:29;22.20;;;12.10;;
5042;SDS011;2540;50.928;6.856;2022-11-20T02:57:54;23.07;;;11.97;;
5042;SDS011;2540;50.928;6.856;2022-11-20T03:00:19;22.67;;;13.03;;
5042;SDS011;2540;50.928;6.856;2022-11-20T03:02:44;20.10;;;11.83;;
5042;SDS011;2540;50.928;6.856;2022-11-20T03:05:10;20.30;;;12.40;;
5042;SDS011;2540;50.928;6.856;2022-11-20T03:07:35;19.23;;;11.30;;
5042;SDS011;2540;50.928;6.856;2022-11-20T03:10:00;16.83;;;10.47;;
5042;SDS011;2540;50.928;6.856;2022-11-20T03:12:25;21.60;;;12.43;;
5042;SDS011;2540;50.928;6.856;2022-11-20T03:14:50;17.17;;;10.70;;
5042;SDS011;2540;50.928;6.856;2022-11-20T03:17:16;21.23;;;11.60;;
5042;SDS011;2540;50.928;6.856;2022-11-20T03:19:41;20.10;;;10.87;;
5042;SDS011;2540;50.928;6.856;2022-11-20T03:22:06;21.43;;;11.80;;
5042;SDS011;2540;50.928;6.856;2022-11-20T03:24:31;16.97;;;11.67;;
5042;SDS011;2540;50.928;6.856;2022-11-20T03:26:56;18.80;;;10.90;;
5042;SDS011;2540;50.928;6.856;2022-11-20T03:29:22;22.27;;;11.93;;
5042;SDS011;2540;50.928;6.856;2022-11-20T03:31:47;21.13;;;11.23;;
5042;SDS011;2540;50.928;6.856;2022-11-20T03:34:12;22.67;;;11.80;;
5042;SDS011;2540;50.928;6.856;2022-11-20T03:36:40;20.60;;;11.60;;
5042;SDS011;2540;50.928;6.856;2022-11-20T03:39:06;19.90;;;11.27;;
5042;SDS011;2540;50.928;6.856;2022-11-20T03:41:35;22.67;;;12.13;;
5042;SDS011;2540;50.928;6.856;2022-11-20T03:44:01;17.27;;;10.40;;
5042;SDS011;2540;50.928;6.856;2022-11-20T03:46:27;22.10;;;12.10;;
5042;SDS011;2540;50.928;6.856;2022-11-20T03:48:52;20.97;;;12.13;;
5042;SDS011;2540;50.928;6.856;2022-11-20T03:51:18;20.00;;;11.67;;
5042;SDS011;2540;50.928;6.856;2022-11-20T03:53:44;20.83;;;11.87;;
5042;SDS011;2540;50.928;6.856;2022-11-20T03:56:10;20.90;;;12.20;;
5042;SDS011;2540;50.928;6.856;2022-11-20T03:58:36;21.07;;;12.30;;
5042;SDS011;2540;50.928;6.856;2022-11-20T04:01:05;19.67;;;11.17;;
5042;SDS011;2540;50.928;6.856;2022-11-20T04:03:31;20.00;;;11.50;;
5042;SDS011;2540;50.928;6.856;2022-11-20T04:06:00;19.83;;;11.93;;
5042;SDS011;2540;50.928;6.856;2022-11-20T04:08:26;20.63;;;11.93;;
5042;SDS011;2540;50.928;6.856;2022-11-20T04:10:51;21.90;;;12.80;;
5042;SDS011;2540;50.928;6.856;2022-11-20T04:13:16;24.10;;;13.50;;
5042;SDS011;2540;50.928;6.856;2022-11-20T04:15:41;26.20;;;15.50;;
5042;SDS011;2540;50.928;6.856;2022-11-20T04:18:06;23.93;;;13.37;;
5042;SDS011;2540;50.928;6.856;2022-11-20T04:20:31;20.60;;;12.50;;
5042;SDS011;2540;50.928;6.856;2022-11-20T04:22:57;24.23;;;13.47;;
5042;SDS011;2540;50.928;6.856;2022-11-20T04:25:22;23.70;;;13.93;;
5042;SDS011;2540;50.928;6.856;2022-11-20T04:27:47;22.90;;;13.20;;
5042;SDS011;2540;50.928;6.856;2022-11-20T04:30:12;29.53;;;14.87;;
5042;SDS011;2540;50.928;6.856;2022-11-20T04:32:37;28.40;;;15.10;;
5042;SDS011;2540;50.928;6.856;2022-11-20T04:35:03;28.80;;;14.80;;
5042;SDS011;2540;50.928;6.856;2022-11-20T04:37:28;27.50;;;15.67;;
5042;SDS011;2540;50.928;6.856;2022-11-20T04:39:53;30.43;;;16.43;;
5042;SDS011;2540;50.928;6.856;2022-11-20T04:42:18;25.23;;;14.93;;
5042;SDS011;2540;50.928;6.856;2022-11-20T04:44:56;25.03;;;13.40;;
5042;SDS011;2540;50.928;6.856;2022-11-20T04:47:21;24.70;;;13.30;;
5042;SDS011;2540;50.928;6.856;2022-11-20T04:49:47;25.80;;;13.83;;
5042;SDS011;2540;50.928;6.856;2022-11-20T04:52:12;31.63;;;14.40;;
5042;SDS011;2540;50.928;6.856;2022-11-20T04:54:37;20.00;;;12.33;;
5042;SDS011;2540;50.928;6.856;2022-11-20T04:57:02;21.87;;;12.60;;
5042;SDS011;2540;50.928;6.856;2022-11-20T04:59:27;23.77;;;13.47;;
5042;SDS011;2540;50.928;6.856;2022-11-20T05:01:52;27.97;;;13.80;;
5042;SDS011;2540;50.928;6.856;2022-11-20T05:04:18;24.33;;;13.00;;
5042;SDS011;2540;50.928;6.856;2022-11-20T05:06:43;25.00;;;13.87;;
5042;SDS011;2540;50.928;6.856;2022-11-20T05:09:10;25.87;;;13.90;;
5042;SDS011;2540;50.928;6.856;2022-11-20T05:11:35;27.37;;;14.90;;
5042;SDS011;2540;50.928;6.856;2022-11-20T05:14:00;26.87;;;14.53;;
5042;SDS011;2540;50.928;6.856;2022-11-20T05:16:26;26.80;;;14.87;;
5042;SDS011;2540;50.928;6.856;2022-11-20T05:18:52;25.63;;;14.00;;
5042;SDS011;2540;50.928;6.856;2022-11-20T05:21:17;25.33;;;13.80;;
5042;SDS011;2540;50.928;6.856;2022-11-20T05:23:43;23.00;;;12.97;;
5042;SDS011;2540;50.928;6.856;2022-11-20T05:26:12;25.17;;;13.77;;
5042;SDS011;2540;50.928;6.856;2022-11-20T05:28:37;28.50;;;13.90;;
5042;SDS011;2540;50.928;6.856;2022-11-20T05:31:06;27.23;;;14.50;;
5042;SDS011;2540;50.928;6.856;2022-11-20T05:33:32;24.63;;;13.93;;
5042;SDS011;2540;50.928;6.856;2022-11-20T05:35:58;25.97;;;15.00;;
5042;SDS011;2540;50.928;6.856;2022-11-20T05:38:23;29.37;;;13.97;;
5042;SDS011;2540;50.928;6.856;2022-11-20T05:40:48;24.27;;;14.10;;
5042;SDS011;2540;50.928;6.856;2022-11-20T05:43:13;25.83;;;14.20;;
5042;SDS011;2540;50.928;6.856;2022-11-20T05:45:38;22.77;;;13.00;;
5042;SDS011;2540;50.928;6.856;2022-11-20T05:48:03;24.97;;;13.80;;
5042;SDS011;2540;50.928;6.856;2022-11-20T05:50:29;28.23;;;14.17;;
5042;SDS011;2540;50.928;6.856;2022-11-20T05:52:54;26.80;;;14.57;;
5042;SDS011;2540;50.928;6.856;2022-11-20T05:55:20;26.33;;;14.40;;
5042;SDS011;2540;50.928;6.856;2022-11-20T05:57:45;25.13;;;14.63;;
5042;SDS011;2540;50.928;6.856;2022-11-20T06:00:10;26.47;;;14.30;;
5042;SDS011;2540;50.928;6.856;2022-11-20T06:02:36;28.60;;;14.70;;
5042;SDS011;2540;50.928;6.856;2022-11-20T06:05:01;23.50;;;14.07;;
5042;SDS011;2540;50.928;6.856;2022-11-20T06:07:26;24.20;;;13.53;;
5042;SDS011;2540;50.928;6.856;2022-11-20T06:09:51;26.47;;;13.73;;
5042;SDS011;2540;50.928;6.856;2022-11-20T06:12:17;26.13;;;13.70;;
5042;SDS011;2540;50.928;6.856;2022-11-20T06:14:42;26.30;;;13.93;;
5042;SDS011;2540;50.928;6.856;2022-11-20T06:17:07;23.40;;;14.07;;
5042;SDS011;2540;50.928;6.856;2022-11-20T06:19:32;24.37;;;14.80;;
5042;SDS011;2540;50.928;6.856;2022-11-20T06:21:57;29.63;;;14.73;;
5042;SDS011;2540;50.928;6.856;2022-11-20T06:24:22;24.90;;;14.43;;
5042;SDS011;2540;50.928;6.856;2022-11-20T06:26:50;28.17;;;14.10;;
5042;SDS011;2540;50.928;6.856;2022-11-20T06:29:15;25.40;;;13.97;;
5042;SDS011;2540;50.928;6.856;2022-11-20T06:31:40;25.70;;;13.90;;
5042;SDS011;2540;50.928;6.856;2022-11-20T06:34:07;25.50;;;13.53;;
5042;SDS011;2540;50.928;6.856;2022-11-20T06:36:33;21.83;;;12.77;;
5042;SDS011;2540;50.928;6.856;2022-11-20T06:38:58;26.10;;;13.77;;
5042;SDS011;2540;50.928;6.856;2022-11-20T06:41:24;31.50;;;15.37;;
5042;SDS011;2540;50.928;6.856;2022-11-20T06:43:50;27.13;;;14.20;;
5042;SDS011;2540;50.928;6.856;2022-11-20T06:46:15;25.83;;;13.70;;
5042;SDS011;2540;50.928;6.856;2022-11-20T06:48:44;24.50;;;13.73;;
5042;SDS011;2540;50.928;6.856;2022-11-20T06:51:09;24.60;;;14.23;;
5042;SDS011;2540;50.928;6.856;2022-11-20T06:53:34;27.30;;;15.27;;
5042;SDS011;2540;50.928;6.856;2022-11-20T06:56:00;31.00;;;14.53;;
5042;SDS011;2540;50.928;6.856;2022-11-20T06:58:29;27.57;;;15.47;;
5042;SDS011;2540;50.928;6.856;2022-11-20T07:01:02;26.87;;;14.23;;
5042;SDS011;2540;50.928;6.856;2022-11-20T07:03:27;27.93;;;14.70;;
5042;SDS011;2540;50.928;6.856;2022-11-20T07:05:56;25.60;;;13.10;;
5042;SDS011;2540;50.928;6.856;2022-11-20T07:08:21;31.40;;;15.73;;
5042;SDS011;2540;50.928;6.856;2022-11-20T07:10:47;29.10;;;16.33;;
5042;SDS011;2540;50.928;6.856;2022-11-20T07:13:12;37.37;;;15.50;;
5042;SDS011;2540;50.928;6.856;2022-11-20T07:15:37;32.57;;;16.10;;
5042;SDS011;2540;50.928;6.856;2022-11-20T07:18:02;33.80;;;18.03;;
5042;SDS011;2540;50.928;6.856;2022-11-20T07:20:27;33.50;;;17.03;;
5042;SDS011;2540;50.928;6.856;2022-11-20T07:22:56;31.30;;;17.23;;
5042;SDS011;2540;50.928;6.856;2022-11-20T07:25:22;30.73;;;17.10;;
5042;SDS011;2540;50.928;6.856;2022-11-20T07:27:47;32.93;;;16.60;;
5042;SDS011;2540;50.928;6.856;2022-11-20T07:30:12;33.07;;;16.97;;
5042;SDS011;2540;50.928;6.856;2022-11-20T07:32:38;34.77;;;17.60;;
5042;SDS011;2540;50.928;6.856;2022-11-20T07:35:04;34.10;;;15.50;;
5042;SDS011;2540;50.928;6.856;2022-11-20T07:37:29;30.23;;;15.47;;
5042;SDS011;2540;50.928;6.856;2022-11-20T07:39:54;31.20;;;17.10;;
5042;SDS011;2540;50.928;6.856;2022-11-20T07:42:19;28.30;;;15.27;;
5042;SDS011;2540;50.928;6.856;2022-11-20T07:44:44;29.63;;;15.43;;
5042;SDS011;2540;50.928;6.856;2022-11-20T07:47:10;29.57;;;15.13;;
5042;SDS011;2540;50.928;6.856;2022-11-20T07:49:35;26.40;;;13.97;;
5042;SDS011;2540;50.928;6.856;2022-11-20T07:52:00;27.83;;;15.33;;
5042;SDS011;2540;50.928;6.856;2022-11-20T07:54:25;24.30;;;15.07;;
5042;SDS011;2540;50.928;6.856;2022-11-20T07:56:50;32.00;;;14.60;;
5042;SDS011;2540;50.928;6.856;2022-11-20T07:59:16;31.83;;;16.20;;
5042;SDS011;2540;50.928;6.856;2022-11-20T08:01:41;36.03;;;15.53;;
5042;SDS011;2540;50.928;6.856;2022-11-20T08:04:06;32.00;;;15.43;;
5042;SDS011;2540;50.928;6.856;2022-11-20T08:06:32;30.87;;;15.37;;
5042;SDS011;2540;50.928;6.856;2022-11-20T08:08:57;28.23;;;15.77;;
5042;SDS011;2540;50.928;6.856;2022-11-20T08:11:22;31.80;;;16.90;;
5042;SDS011;2540;50.928;6.856;2022-11-20T08:14:06;30.07;;;16.23;;
5042;SDS011;2540;50.928;6.856;2022-11-20T08:16:42;32.60;;;17.43;;
5042;SDS011;2540;50.928;6.856;2022-11-20T08:19:07;30.47;;;16.80;;
5042;SDS011;2540;50.928;6.856;2022-11-20T08:21:33;37.33;;;15.63;;
5042;SDS011;2540;50.928;6.856;2022-11-20T08:23:58;32.53;;;15.60;;
5042;SDS011;2540;50.928;6.856;2022-11-20T08:26:24;29.50;;;14.83;;
5042;SDS011;2540;50.928;6.856;2022-11-20T08:28:55;33.70;;;16.03;;
5042;SDS011;2540;50.928;6.856;2022-11-20T08:31:31;29.60;;;15.37;;
5042;SDS011;2540;50.928;6.856;2022-11-20T08:33:56;24.13;;;14.47;;
5042;SDS011;2540;50.928;6.856;2022-11-20T08:36:22;25.23;;;13.37;;
5042;SDS011;2540;50.928;6.856;2022-11-20T08:38:48;28.33;;;14.17;;
5042;SDS011;2540;50.928;6.856;2022-11-20T08:41:13;28.80;;;14.57;;
5042;SDS011;2540;50.928;6.856;2022-11-20T08:44:02;28.77;;;15.20;;
5042;SDS011;2540;50.928;6.856;2022-11-20T08:46:32;34.03;;;15.43;;
5042;SDS011;2540;50.928;6.856;2022-11-20T08:48:58;24.80;;;14.60;;
5042;SDS011;2540;50.928;6.856;2022-11-20T08:51:24;27.33;;;15.37;;
5042;SDS011;2540;50.928;6.856;2022-11-20T08:53:49;32.17;;;15.47;;
5042;SDS011;2540;50.928;6.856;2022-11-20T08:56:14;29.50;;;16.30;;
5042;SDS011;2540;50.928;6.856;2022-11-20T08:58:39;30.20;;;15.27;;
5042;SDS011;2540;50.928;6.856;2022-11-20T09:01:04;30.53;;;14.33;;
5042;SDS011;2540;50.928;6.856;2022-11-20T09:03:30;24.47;;;14.43;;
5042;SDS011;2540;50.928;6.856;2022-11-20T09:05:58;25.60;;;14.07;;
5042;SDS011;2540;50.928;6.856;2022-11-20T09:08:24;26.40;;;14.00;;
5042;SDS011;2540;50.928;6.856;2022-11-20T09:10:53;25.30;;;12.80;;
5042;SDS011;2540;50.928;6.856;2022-11-20T09:13:19;32.00;;;16.50;;
5042;SDS011;2540;50.928;6.856;2022-11-20T09:15:44;23.97;;;13.60;;
5042;SDS011;2540;50.928;6.856;2022-11-20T09:18:09;29.57;;;14.10;;
5042;SDS011;2540;50.928;6.856;2022-11-20T09:20:34;30.10;;;14.47;;
5042;SDS011;2540;50.928;6.856;2022-11-20T09:23:00;26.17;;;13.80;;
5042;SDS011;2540;50.928;6.856;2022-11-20T09:25:25;25.50;;;14.40;;
5042;SDS011;2540;50.928;6.856;2022-11-20T09:27:57;22.40;;;12.70;;
5042;SDS011;2540;50.928;6.856;2022-11-20T09:30:22;25.90;;;12.87;;
5042;SDS011;2540;50.928;6.856;2022-11-20T09:32:48;34.23;;;14.23;;
5042;SDS011;2540;50.928;6.856;2022-11-20T09:35:13;25.77;;;12.40;;
5042;SDS011;2540;50.928;6.856;2022-11-20T09:37:39;25.60;;;12.73;;
5042;SDS011;2540;50.928;6.856;2022-11-20T09:40:05;23.63;;;12.40;;
5042;SDS011;2540;50.928;6.856;2022-11-20T09:45:14;26.73;;;13.80;;
5042;SDS011;2540;50.928;6.856;2022-11-20T09:53:04;23.83;;;13.67;;
5042;SDS011;2540;50.928;6.856;2022-11-20T09:55:30;29.10;;;14.80;;
5042;SDS011;2540;50.928;6.856;2022-11-20T09:57:56;30.90;;;14.40;;
5042;SDS011;2540;50.928;6.856;2022-11-20T10:00:22;34.60;;;14.87;;
5042;SDS011;2540;50.928;6.856;2022-11-20T10:21:08;26.27;;;13.90;;
5042;SDS011;2540;50.928;6.856;2022-11-20T10:23:43;30.43;;;15.37;;
5042;SDS011;2540;50.928;6.856;2022-11-20T10:26:17;33.67;;;16.63;;
5042;SDS011;2540;50.928;6.856;2022-11-20T10:31:34;33.33;;;17.17;;
5042;SDS011;2540;50.928;6.856;2022-11-20T10:34:03;31.27;;;16.87;;
5042;SDS011;2540;50.928;6.856;2022-11-20T10:36:38;32.43;;;16.43;;
5042;SDS011;2540;50.928;6.856;2022-11-20T10:39:06;31.57;;;15.47;;
5042;SDS011;2540;50.928;6.856;2022-11-20T10:41:33;30.50;;;15.37;;
5042;SDS011;2540;50.928;6.856;2022-11-20T10:44:09;30.10;;;15.50;;
5042;SDS011;2540;50.928;6.856;2022-11-20T10:46:40;33.03;;;16.40;;
5042;SDS011;2540;50.928;6.856;2022-11-20T10:49:13;32.80;;;15.10;;
5042;SDS011;2540;50.928;6.856;2022-11-20T10:56:52;28.50;;;14.50;;
5042;SDS011;2540;50.928;6.856;2022-11-20T11:01:45;32.03;;;14.67;;
5042;SDS011;2540;50.928;6.856;2022-11-20T11:06:57;30.07;;;14.13;;
5042;SDS011;2540;50.928;6.856;2022-11-20T11:09:34;26.83;;;14.37;;
5042;SDS011;2540;50.928;6.856;2022-11-20T11:12:00;25.83;;;12.97;;
5042;SDS011;2540;50.928;6.856;2022-11-20T11:14:25;26.13;;;13.60;;
5042;SDS011;2540;50.928;6.856;2022-11-20T11:16:51;28.60;;;14.80;;
5042;SDS011;2540;50.928;6.856;2022-11-20T11:19:17;28.93;;;15.17;;
5042;SDS011;2540;50.928;6.856;2022-11-20T11:21:46;28.50;;;14.20;;
5042;SDS011;2540;50.928;6.856;2022-11-20T11:24:24;32.10;;;15.13;;
5042;SDS011;2540;50.928;6.856;2022-11-20T11:26:58;28.87;;;14.00;;
5042;SDS011;2540;50.928;6.856;2022-11-20T11:29:24;30.37;;;15.07;;
5042;SDS011;2540;50.928;6.856;2022-11-20T11:32:02;28.57;;;14.60;;
5042;SDS011;2540;50.928;6.856;2022-11-20T11:34:27;30.17;;;15.13;;
5042;SDS011;2540;50.928;6.856;2022-11-20T11:36:55;35.67;;;15.37;;
5042;SDS011;2540;50.928;6.856;2022-11-20T11:39:21;28.07;;;14.90;;
5042;SDS011;2540;50.928;6.856;2022-11-20T11:41:46;29.33;;;15.00;;
5042;SDS011;2540;50.928;6.856;2022-11-20T11:44:22;27.10;;;14.00;;
5042;SDS011;2540;50.928;6.856;2022-11-20T11:52:41;27.90;;;13.87;;
5042;SDS011;2540;50.928;6.856;2022-11-20T11:55:07;29.67;;;14.10;;
5042;SDS011;2540;50.928;6.856;2022-11-20T12:00:36;27.50;;;14.60;;
5042;SDS011;2540;50.928;6.856;2022-11-20T12:03:12;27.10;;;14.07;;
5042;SDS011;2540;50.928;6.856;2022-11-20T12:13:52;30.30;;;13.93;;
5042;SDS011;2540;50.928;6.856;2022-11-20T12:16:19;26.10;;;14.20;;
5042;SDS011;2540;50.928;6.856;2022-11-20T12:18:44;40.23;;;14.17;;
5042;SDS011;2540;50.928;6.856;2022-11-20T12:21:21;28.63;;;14.53;;
5042;SDS011;2540;50.928;6.856;2022-11-20T12:29:08;31.40;;;15.33;;
5042;SDS011;2540;50.928;6.856;2022-11-20T12:31:47;27.00;;;13.77;;
5042;SDS011;2540;50.928;6.856;2022-11-20T12:36:54;29.33;;;14.00;;
5042;SDS011;2540;50.928;6.856;2022-11-20T12:45:04;24.20;;;13.60;;
5042;SDS011;2540;50.928;6.856;2022-11-20T12:50:23;28.03;;;13.83;;
5042;SDS011;2540;50.928;6.856;2022-11-20T12:52:54;26.33;;;12.73;;
5042;SDS011;2540;50.928;6.856;2022-11-20T12:58:16;26.73;;;13.10;;
5042;SDS011;2540;50.928;6.856;2022-11-20T13:00:52;25.10;;;12.07;;
5042;SDS011;2540;50.928;6.856;2022-11-20T13:06:18;28.83;;;13.83;;
5042;SDS011;2540;50.928;6.856;2022-11-20T13:08:53;27.30;;;13.50;;
5042;SDS011;2540;50.928;6.856;2022-11-20T13:11:31;23.90;;;13.00;;
5042;SDS011;2540;50.928;6.856;2022-11-20T13:18:47;28.70;;;13.57;;
5042;SDS011;2540;50.928;6.856;2022-11-20T13:21:20;25.67;;;13.27;;
5042;SDS011;2540;50.928;6.856;2022-11-20T13:23:46;22.93;;;12.50;;
5042;SDS011;2540;50.928;6.856;2022-11-20T13:26:21;25.30;;;12.90;;
5042;SDS011;2540;50.928;6.856;2022-11-20T13:28:48;25.37;;;13.20;;
5042;SDS011;2540;50.928;6.856;2022-11-20T13:31:27;26.40;;;12.97;;
5042;SDS011;2540;50.928;6.856;2022-11-20T13:33:53;24.30;;;12.70;;
5042;SDS011;2540;50.928;6.856;2022-11-20T13:36:24;26.50;;;12.73;;
5042;SDS011;2540;50.928;6.856;2022-11-20T13:38:51;27.03;;;12.53;;
5042;SDS011;2540;50.928;6.856;2022-11-20T13:41:24;26.63;;;13.17;;
5042;SDS011;2540;50.928;6.856;2022-11-20T13:43:53;32.73;;;16.43;;
5042;SDS011;2540;50.928;6.856;2022-11-20T13:46:19;34.73;;;17.10;;
5042;SDS011;2540;50.928;6.856;2022-11-20T13:48:49;35.57;;;17.70;;
5042;SDS011;2540;50.928;6.856;2022-11-20T13:51:25;31.57;;;13.90;;
5042;SDS011;2540;50.928;6.856;2022-11-20T13:56:53;24.03;;;13.60;;
5042;SDS011;2540;50.928;6.856;2022-11-20T13:59:33;25.27;;;13.00;;
5042;SDS011;2540;50.928;6.856;2022-11-20T14:02:03;26.23;;;14.10;;
5042;SDS011;2540;50.928;6.856;2022-11-20T14:04:35;27.73;;;13.70;;
5042;SDS011;2540;50.928;6.856;2022-11-20T14:07:01;24.20;;;13.30;;
5042;SDS011;2540;50.928;6.856;2022-11-20T14:09:30;23.53;;;13.93;;
5042;SDS011;2540;50.928;6.856;2022-11-20T14:11:56;27.53;;;12.97;;
5042;SDS011;2540;50.928;6.856;2022-11-20T14:14:25;35.33;;;17.00;;
5042;SDS011;2540;50.928;6.856;2022-11-20T14:16:51;29.03;;;13.70;;
5042;SDS011;2540;50.928;6.856;2022-11-20T14:21:45;27.17;;;12.73;;
5042;SDS011;2540;50.928;6.856;2022-11-20T14:24:11;29.73;;;14.10;;
5042;SDS011;2540;50.928;6.856;2022-11-20T14:26:37;26.57;;;14.07;;
5042;SDS011;2540;50.928;6.856;2022-11-20T14:29:03;34.67;;;17.40;;
5042;SDS011;2540;50.928;6.856;2022-11-20T14:31:28;35.30;;;16.30;;
5042;SDS011;2540;50.928;6.856;2022-11-20T14:33:53;30.27;;;16.80;;
5042;SDS011;2540;50.928;6.856;2022-11-20T14:36:20;27.03;;;13.70;;
5042;SDS011;2540;50.928;6.856;2022-11-20T14:38:46;24.17;;;12.87;;
5042;SDS011;2540;50.928;6.856;2022-11-20T14:41:19;27.43;;;13.03;;
5042;SDS011;2540;50.928;6.856;2022-11-20T14:44:02;27.47;;;12.70;;
5042;SDS011;2540;50.928;6.856;2022-11-20T14:46:28;29.37;;;12.83;;
5042;SDS011;2540;50.928;6.856;2022-11-20T14:48:55;29.43;;;14.67;;
5042;SDS011;2540;50.928;6.856;2022-11-20T14:51:34;25.63;;;13.60;;
5042;SDS011;2540;50.928;6.856;2022-11-20T14:54:18;26.70;;;12.40;;
5042;SDS011;2540;50.928;6.856;2022-11-20T14:57:00;24.00;;;12.77;;
5042;SDS011;2540;50.928;6.856;2022-11-20T14:59:27;26.63;;;13.87;;
5042;SDS011;2540;50.928;6.856;2022-11-20T15:01:56;28.50;;;13.70;;
5042;SDS011;2540;50.928;6.856;2022-11-20T15:04:22;27.53;;;12.00;;
5042;SDS011;2540;50.928;6.856;2022-11-20T15:06:53;23.17;;;12.30;;
5042;SDS011;2540;50.928;6.856;2022-11-20T15:09:18;28.03;;;14.27;;
5042;SDS011;2540;50.928;6.856;2022-11-20T15:11:56;27.07;;;12.47;;
5042;SDS011;2540;50.928;6.856;2022-11-20T15:14:22;28.07;;;13.27;;
5042;SDS011;2540;50.928;6.856;2022-11-20T15:16:48;25.00;;;12.27;;
5042;SDS011;2540;50.928;6.856;2022-11-20T15:19:16;30.63;;;14.93;;
5042;SDS011;2540;50.928;6.856;2022-11-20T15:21:42;31.83;;;14.43;;
5042;SDS011;2540;50.928;6.856;2022-11-20T15:24:08;28.67;;;14.10;;
5042;SDS011;2540;50.928;6.856;2022-11-20T15:26:33;29.67;;;14.40;;
5042;SDS011;2540;50.928;6.856;2022-11-20T15:28:59;31.10;;;14.33;;
5042;SDS011;2540;50.928;6.856;2022-11-20T15:31:24;27.57;;;13.97;;
5042;SDS011;2540;50.928;6.856;2022-11-20T15:33:50;31.40;;;13.83;;
5042;SDS011;2540;50.928;6.856;2022-11-20T15:36:15;26.63;;;13.57;;
5042;SDS011;2540;50.928;6.856;2022-11-20T15:38:40;29.90;;;14.87;;
5042;SDS011;2540;50.928;6.856;2022-11-20T15:41:05;35.17;;;15.63;;
5042;SDS011;2540;50.928;6.856;2022-11-20T15:43:30;31.67;;;14.50;;
5042;SDS011;2540;50.928;6.856;2022-11-20T15:46:00;32.63;;;13.60;;
5042;SDS011;2540;50.928;6.856;2022-11-20T15:48:34;29.23;;;13.87;;
5042;SDS011;2540;50.928;6.856;2022-11-20T15:51:07;27.73;;;13.20;;
5042;SDS011;2540;50.928;6.856;2022-11-20T15:53:39;33.47;;;15.30;;
5042;SDS011;2540;50.928;6.856;2022-11-20T15:56:05;32.40;;;13.07;;
5042;SDS011;2540;50.928;6.856;2022-11-20T15:58:30;25.80;;;13.37;;
5042;SDS011;2540;50.928;6.856;2022-11-20T16:00:55;30.17;;;13.30;;
5042;SDS011;2540;50.928;6.856;2022-11-20T16:03:21;27.73;;;12.63;;
5042;SDS011;2540;50.928;6.856;2022-11-20T16:05:46;31.37;;;12.80;;
5042;SDS011;2540;50.928;6.856;2022-11-20T16:08:11;30.13;;;13.40;;
5042;SDS011;2540;50.928;6.856;2022-11-20T16:10:37;23.33;;;12.50;;
5042;SDS011;2540;50.928;6.856;2022-11-20T16:13:02;22.80;;;11.77;;
5042;SDS011;2540;50.928;6.856;2022-11-20T16:15:50;26.27;;;10.90;;
5042;SDS011;2540;50.928;6.856;2022-11-20T16:18:17;26.37;;;11.47;;
5042;SDS011;2540;50.928;6.856;2022-11-20T16:20:43;24.90;;;11.03;;
5042;SDS011;2540;50.928;6.856;2022-11-20T16:23:08;28.83;;;11.80;;